createdAt,value
2022-08-17T00:00:34.286Z,6.93
2022-08-17T00:03:17.895Z,8.33
2022-08-17T00:05:52.611Z,7.37
2022-08-17T00:08:23.328Z,7.07
2022-08-17T00:10:51.789Z,7.77
2022-08-17T00:13:25.816Z,7.77
2022-08-17T00:15:57.887Z,7.00
2022-08-17T00:19:01.979Z,7.27
2022-08-17T00:21:13.163Z,7.53
2022-08-17T00:23:47.698Z,7.47
2022-08-17T00:26:16.636Z,7.40
2022-08-17T00:29:04.278Z,7.43
2022-08-17T00:31:31.933Z,6.73
2022-08-17T00:33:59.391Z,7.00
2022-08-17T00:36:26.365Z,7.30
2022-08-17T00:38:56.326Z,7.30
2022-08-17T00:41:26.665Z,7.10
2022-08-17T00:44:02.328Z,7.27
2022-08-17T00:46:36.461Z,7.33
2022-08-17T00:49:04.917Z,7.77
2022-08-17T00:51:52.753Z,6.90
2022-08-17T00:54:33.666Z,7.93
2022-08-17T00:57:18.530Z,7.17
2022-08-17T01:00:01.792Z,7.43
2022-08-17T01:02:35.029Z,7.67
2022-08-17T01:05:12.616Z,8.03
2022-08-17T01:07:40.095Z,8.00
2022-08-17T01:10:58.521Z,8.17
2022-08-17T01:12:56.868Z,8.60
2022-08-17T01:15:23.834Z,8.70
2022-08-17T01:17:50.685Z,7.83
2022-08-17T01:20:17.594Z,8.77
2022-08-17T01:22:53.667Z,8.67
2022-08-17T01:25:21.392Z,8.77
2022-08-17T01:27:49.340Z,8.50
2022-08-17T01:30:58.722Z,8.70
2022-08-17T01:33:04.396Z,8.67
2022-08-17T01:35:31.913Z,8.40
2022-08-17T01:37:58.862Z,8.20
2022-08-17T01:40:39.013Z,8.63
2022-08-17T01:43:12.221Z,8.23
2022-08-17T01:45:44.215Z,8.50
2022-08-17T01:48:12.438Z,8.00
2022-08-17T01:50:42.027Z,8.70
2022-08-17T01:53:25.657Z,8.00
2022-08-17T01:55:55.512Z,8.70
2022-08-17T01:58:22.911Z,7.80
2022-08-17T02:01:00.519Z,8.30
2022-08-17T02:03:29.651Z,8.63
2022-08-17T02:05:56.973Z,8.20
2022-08-17T02:08:39.268Z,8.87
2022-08-17T02:11:16.990Z,8.03
2022-08-17T02:13:45.807Z,8.70
2022-08-17T02:16:13.084Z,8.20
2022-08-17T02:18:40.132Z,8.67
2022-08-17T02:21:08.154Z,8.83
2022-08-17T02:23:39.081Z,8.50
2022-08-17T02:26:06.659Z,8.40
2022-08-17T02:28:33.986Z,9.13
2022-08-17T02:31:10.296Z,9.43
2022-08-17T02:33:42.888Z,8.77
2022-08-17T02:36:13.038Z,8.47
2022-08-17T02:38:40.906Z,9.10
2022-08-17T02:41:08.529Z,9.20
2022-08-17T02:43:35.539Z,9.33
2022-08-17T02:46:02.497Z,8.93
2022-08-17T02:48:31.683Z,9.23
2022-08-17T02:51:00.031Z,9.63
2022-08-17T02:53:27.740Z,9.23
2022-08-17T02:56:02.698Z,9.57
2022-08-17T02:58:35.094Z,9.00
2022-08-17T03:01:06.033Z,9.17
2022-08-17T03:03:32.982Z,9.37
2022-08-17T03:06:00.152Z,9.40
2022-08-17T03:08:27.305Z,9.93
2022-08-17T03:10:54.386Z,9.20
2022-08-17T03:13:21.675Z,9.50
2022-08-17T03:15:49.713Z,9.13
2022-08-17T03:18:24.841Z,9.43
2022-08-17T03:20:58.307Z,10.13
2022-08-17T03:23:26.111Z,9.23
2022-08-17T03:25:55.188Z,9.17
2022-08-17T03:28:23.539Z,8.80
2022-08-17T03:30:51.680Z,9.90
2022-08-17T03:33:19.439Z,9.80
2022-08-17T03:35:46.987Z,9.77
2022-08-17T03:38:15.371Z,9.67
2022-08-17T03:40:56.236Z,9.30
2022-08-17T03:43:30.943Z,9.50
2022-08-17T03:46:27.038Z,9.47
2022-08-17T03:49:19.767Z,9.60
2022-08-17T03:52:05.354Z,10.20
2022-08-17T03:54:50.676Z,10.27
2022-08-17T03:57:18.551Z,9.60
2022-08-17T03:59:45.713Z,10.10
2022-08-17T04:02:24.307Z,9.97
2022-08-17T04:04:52.337Z,9.87
2022-08-17T04:07:21.684Z,9.23
2022-08-17T04:09:48.942Z,9.87
2022-08-17T04:12:18.505Z,9.63
2022-08-17T04:14:53.270Z,9.73
2022-08-17T04:17:27.679Z,10.13
2022-08-17T04:19:55.395Z,8.97
2022-08-17T04:22:31.794Z,9.00
2022-08-17T04:25:01.734Z,8.97
2022-08-17T04:27:28.595Z,9.20
2022-08-17T04:29:56.220Z,8.87
2022-08-17T04:32:58.576Z,9.30
2022-08-17T04:35:10.376Z,9.40
2022-08-17T04:37:37.215Z,8.87
2022-08-17T04:40:27.159Z,9.30
2022-08-17T04:43:02.788Z,9.23
2022-08-17T04:45:32.409Z,8.60
2022-08-17T04:48:00.840Z,9.47
2022-08-17T04:50:27.900Z,9.00
2022-08-17T04:52:55.000Z,9.30
2022-08-17T04:55:22.286Z,8.63
2022-08-17T04:57:49.102Z,9.27
2022-08-17T05:00:16.143Z,8.97
2022-08-17T05:02:50.673Z,8.40
2022-08-17T05:05:23.708Z,9.30
2022-08-17T05:07:56.217Z,8.83
2022-08-17T05:10:29.467Z,8.80
2022-08-17T05:13:07.540Z,9.57
2022-08-17T05:15:36.257Z,8.80
2022-08-17T05:18:04.450Z,8.87
2022-08-17T05:20:31.918Z,9.13
2022-08-17T05:23:01.687Z,9.10
2022-08-17T05:25:33.296Z,8.17
2022-08-17T05:28:05.567Z,8.60
2022-08-17T05:30:33.285Z,8.83
2022-08-17T05:33:06.948Z,8.67
2022-08-17T05:35:37.448Z,8.30
2022-08-17T05:38:05.860Z,7.73
2022-08-17T05:40:33.245Z,9.17
2022-08-17T05:43:14.179Z,8.23
2022-08-17T05:45:54.625Z,8.33
2022-08-17T05:48:35.399Z,9.07
2022-08-17T05:51:39.720Z,7.28
2022-08-17T05:54:06.684Z,8.23
2022-08-17T05:56:36.524Z,8.38
2022-08-17T05:59:21.426Z,7.30
2022-08-17T06:02:25.776Z,6.93
2022-08-17T06:04:52.583Z,7.75
2022-08-17T06:07:34.411Z,7.10
2022-08-17T06:10:16.431Z,7.07
2022-08-17T06:13:12.791Z,7.22
2022-08-17T06:15:42.411Z,8.15
2022-08-17T06:18:12.152Z,7.07
2022-08-17T06:21:12.503Z,7.15
2022-08-17T06:23:50.747Z,7.82
2022-08-17T06:26:27.503Z,7.20
2022-08-17T06:29:29.918Z,6.88
2022-08-17T06:31:57.738Z,7.80
2022-08-17T06:34:24.680Z,7.85
2022-08-17T06:37:01.773Z,6.63
2022-08-17T06:39:47.886Z,7.18
2022-08-17T06:43:04.045Z,6.30
2022-08-17T06:45:56.152Z,7.40
2022-08-17T06:48:36.101Z,6.80
2022-08-17T06:51:25.967Z,7.40
2022-08-17T06:54:05.451Z,6.65
2022-08-17T06:56:53.248Z,5.68
2022-08-17T06:59:53.222Z,6.72
2022-08-17T07:02:29.103Z,6.72
2022-08-17T07:05:09.836Z,6.25
2022-08-17T07:07:58.057Z,6.57
2022-08-17T07:10:27.604Z,7.55
2022-08-17T07:12:58.217Z,7.13
2022-08-17T07:15:42.383Z,6.88
2022-08-17T07:18:10.374Z,6.50
2022-08-17T07:20:42.977Z,6.38
2022-08-17T07:23:19.124Z,6.65
2022-08-17T07:25:45.995Z,6.22
2022-08-17T07:28:13.062Z,5.82
2022-08-17T07:30:49.368Z,5.65
2022-08-17T07:33:20.331Z,6.03
2022-08-17T07:35:48.462Z,4.80
2022-08-17T07:38:33.662Z,4.60
2022-08-17T07:41:07.314Z,4.57
2022-08-17T07:43:41.473Z,4.30
2022-08-17T07:46:33.637Z,4.53
2022-08-17T07:49:03.526Z,4.20
2022-08-17T07:51:42.382Z,3.78
2022-08-17T07:54:15.486Z,4.03
2022-08-17T07:57:03.439Z,4.25
2022-08-17T07:59:36.477Z,3.45
2022-08-17T08:02:35.640Z,3.40
2022-08-17T08:05:32.895Z,3.40
2022-08-17T08:08:17.878Z,3.13
2022-08-17T08:10:56.708Z,3.08
2022-08-17T08:13:30.248Z,2.85
2022-08-17T08:16:20.733Z,3.67
2022-08-17T08:18:56.845Z,2.95
2022-08-17T08:21:59.110Z,3.53
2022-08-17T08:24:59.129Z,3.45
2022-08-17T08:27:33.577Z,3.00
2022-08-17T08:30:08.094Z,3.20
2022-08-17T08:33:07.628Z,3.28
2022-08-17T08:35:41.799Z,3.53
2022-08-17T08:38:37.153Z,3.60
2022-08-17T08:41:33.356Z,3.85
2022-08-17T08:45:00.139Z,3.38
2022-08-17T08:48:05.163Z,3.20
2022-08-17T08:50:44.431Z,3.40
2022-08-17T08:53:26.257Z,3.35
2022-08-17T08:56:00.648Z,3.38
2022-08-17T08:58:54.856Z,3.30
2022-08-17T09:01:35.618Z,3.40
2022-08-17T09:04:44.933Z,3.40
2022-08-17T09:08:00.007Z,3.03
2022-08-17T09:10:49.952Z,3.50
2022-08-17T09:13:30.791Z,3.17
2022-08-17T09:16:09.211Z,3.28
2022-08-17T09:18:59.955Z,3.35
2022-08-17T09:21:55.622Z,3.05
2022-08-17T09:24:33.280Z,3.03
2022-08-17T09:27:18.496Z,3.30
2022-08-17T09:29:51.695Z,4.20
2022-08-17T09:32:28.639Z,2.95
2022-08-17T09:35:05.093Z,2.83
2022-08-17T09:37:57.108Z,2.92
2022-08-17T09:40:26.726Z,2.90
2022-08-17T09:43:04.732Z,2.85
2022-08-17T09:45:42.821Z,2.80
2022-08-17T09:49:24.610Z,2.58
2022-08-17T09:52:01.110Z,2.78
2022-08-17T09:54:39.241Z,2.90
2022-08-17T09:57:30.400Z,2.22
2022-08-17T10:00:01.323Z,2.30
2022-08-17T10:02:37.048Z,2.40
2022-08-17T10:05:13.806Z,2.35
2022-08-17T10:07:55.985Z,2.65
2022-08-17T10:10:29.794Z,2.42
2022-08-17T10:13:31.492Z,2.78
2022-08-17T10:16:01.076Z,2.28
2022-08-17T10:18:53.068Z,2.33
2022-08-17T10:21:39.882Z,2.85
2022-08-17T10:24:38.894Z,2.70
2022-08-17T10:27:16.171Z,2.50
2022-08-17T10:29:53.629Z,2.65
2022-08-17T10:32:49.843Z,2.55
2022-08-17T10:35:35.472Z,2.72
2022-08-17T10:38:40.949Z,2.70
2022-08-17T10:41:13.962Z,2.78
2022-08-17T10:43:58.895Z,2.65
2022-08-17T10:47:16.894Z,2.63
2022-08-17T10:49:54.010Z,2.40
2022-08-17T10:52:26.328Z,2.38
2022-08-17T10:54:58.535Z,2.40
2022-08-17T10:57:34.751Z,2.55
2022-08-17T11:00:02.651Z,2.70
2022-08-17T11:02:49.474Z,2.63
2022-08-17T11:05:52.334Z,2.70
2022-08-17T11:08:49.483Z,2.90
2022-08-17T11:11:40.025Z,2.78
2022-08-17T11:14:25.516Z,2.88
2022-08-17T11:16:58.262Z,2.80
2022-08-17T11:19:41.612Z,3.05
2022-08-17T11:22:33.509Z,2.38
2022-08-17T11:25:36.223Z,2.30
2022-08-17T11:28:26.269Z,3.08
2022-08-17T11:30:57.223Z,2.40
2022-08-17T11:33:34.007Z,2.55
2022-08-17T11:36:15.905Z,3.03
2022-08-17T11:38:57.950Z,2.60
2022-08-17T11:41:35.271Z,2.42
2022-08-17T11:44:20.580Z,3.08
2022-08-17T11:47:27.865Z,2.35
2022-08-17T11:50:35.471Z,2.85
2022-08-17T11:53:03.225Z,2.88
2022-08-17T11:55:40.511Z,2.78
2022-08-17T11:58:45.337Z,2.83
2022-08-17T12:01:33.674Z,3.00
2022-08-17T12:04:30.212Z,2.88
2022-08-17T12:07:23.173Z,2.60
2022-08-17T12:09:51.854Z,2.70
2022-08-17T12:12:33.294Z,2.50
2022-08-17T12:15:16.948Z,2.83
2022-08-17T12:17:56.746Z,2.95
2022-08-17T12:20:39.613Z,2.90
2022-08-17T12:23:13.991Z,2.63
2022-08-17T12:25:47.653Z,2.80
2022-08-17T12:28:28.528Z,2.58
2022-08-17T12:31:01.958Z,3.00
2022-08-17T12:33:29.165Z,3.05
2022-08-17T12:36:06.324Z,2.75
2022-08-17T12:38:36.154Z,2.80
2022-08-17T12:41:26.065Z,3.03
2022-08-17T12:44:02.282Z,2.80
2022-08-17T12:46:44.799Z,2.78
2022-08-17T12:49:16.103Z,2.50
2022-08-17T12:51:45.792Z,2.88
2022-08-17T12:54:26.390Z,2.72
2022-08-17T12:56:53.760Z,2.60
2022-08-17T12:59:29.943Z,2.70
2022-08-17T13:01:57.800Z,2.83
2022-08-17T13:04:26.496Z,3.28
2022-08-17T13:06:59.734Z,3.17
2022-08-17T13:09:36.082Z,3.08
2022-08-17T13:12:07.880Z,3.30
2022-08-17T13:14:35.416Z,3.38
2022-08-17T13:17:09.718Z,3.00
2022-08-17T13:19:49.479Z,2.83
2022-08-17T13:22:18.406Z,3.22
2022-08-17T13:24:56.584Z,2.78
2022-08-17T13:27:26.486Z,3.03
2022-08-17T13:29:59.652Z,3.15
2022-08-17T13:32:47.263Z,3.15
2022-08-17T13:35:40.993Z,3.00
2022-08-17T13:38:37.524Z,3.10
2022-08-17T13:41:07.532Z,3.00
2022-08-17T13:43:45.059Z,3.00
2022-08-17T13:46:25.233Z,2.75
2022-08-17T13:49:09.937Z,2.97
2022-08-17T13:51:43.903Z,3.35
2022-08-17T13:54:22.626Z,3.40
2022-08-17T13:57:00.303Z,3.30
2022-08-17T13:59:53.622Z,2.78
2022-08-17T14:02:20.824Z,2.72
2022-08-17T14:04:49.234Z,2.95
2022-08-17T14:07:16.755Z,3.03
2022-08-17T14:10:14.881Z,3.10
2022-08-17T14:12:44.936Z,3.63
2022-08-17T14:15:15.056Z,3.03
2022-08-17T14:17:42.083Z,3.60
2022-08-17T14:20:12.151Z,3.33
2022-08-17T14:22:43.298Z,3.17
2022-08-17T14:25:13.217Z,2.95
2022-08-17T14:27:47.121Z,3.50
2022-08-17T14:30:28.973Z,3.13
2022-08-17T14:32:58.176Z,3.05
2022-08-17T14:35:27.524Z,2.90
2022-08-17T14:37:54.630Z,2.72
2022-08-17T14:40:24.959Z,2.90
2022-08-17T14:42:53.731Z,3.22
2022-08-17T14:45:27.028Z,3.00
2022-08-17T14:48:01.763Z,2.97
2022-08-17T14:50:28.588Z,2.95
2022-08-17T14:52:59.165Z,2.97
2022-08-17T14:55:28.411Z,3.25
2022-08-17T14:57:55.246Z,2.97
2022-08-17T15:00:22.673Z,3.00
2022-08-17T15:02:55.161Z,2.90
2022-08-17T15:05:24.994Z,2.85
2022-08-17T15:07:53.549Z,3.10
2022-08-17T15:10:20.697Z,2.97
2022-08-17T15:12:47.901Z,3.33
2022-08-17T15:15:17.158Z,3.35
2022-08-17T15:17:54.721Z,3.00
2022-08-17T15:20:28.143Z,3.30
2022-08-17T15:22:57.286Z,3.45
2022-08-17T15:25:27.518Z,2.90
2022-08-17T15:27:55.946Z,2.83
2022-08-17T15:30:23.683Z,3.10
2022-08-17T15:32:55.102Z,3.03
2022-08-17T15:35:27.929Z,3.17
2022-08-17T15:38:11.542Z,2.78
2022-08-17T15:40:42.560Z,3.40
2022-08-17T15:43:12.451Z,3.45
2022-08-17T15:45:40.032Z,3.28
2022-08-17T15:48:07.070Z,2.80
2022-08-17T15:50:34.092Z,3.03
2022-08-17T15:53:02.329Z,3.30
2022-08-17T15:55:31.229Z,2.80
2022-08-17T15:57:58.481Z,3.10
2022-08-17T16:00:35.462Z,3.50
2022-08-17T16:03:59.342Z,2.90
2022-08-17T16:06:07.851Z,2.97
2022-08-17T16:08:38.389Z,3.25
2022-08-17T16:11:05.608Z,3.15
2022-08-17T16:13:32.879Z,3.10
2022-08-17T16:15:59.810Z,3.33
2022-08-17T16:18:31.437Z,3.28
2022-08-17T16:21:20.130Z,3.35
2022-08-17T16:23:49.450Z,3.30
2022-08-17T16:26:16.524Z,2.70
2022-08-17T16:28:43.415Z,2.92
2022-08-17T16:31:10.910Z,3.00
2022-08-17T16:33:39.624Z,3.58
2022-08-17T16:36:10.313Z,3.33
2022-08-17T16:38:38.623Z,2.80
2022-08-17T16:41:06.497Z,3.15
2022-08-17T16:43:34.571Z,3.03
2022-08-17T16:46:02.053Z,3.17
2022-08-17T16:48:29.751Z,3.45
2022-08-17T16:51:03.223Z,2.72
2022-08-17T16:53:31.686Z,3.00
2022-08-17T16:55:58.693Z,3.58
2022-08-17T16:58:25.659Z,3.25
2022-08-17T17:00:52.829Z,3.03
2022-08-17T17:03:25.807Z,2.78
2022-08-17T17:06:16.628Z,3.28
2022-08-17T17:09:00.762Z,3.10
2022-08-17T17:11:40.486Z,3.20
2022-08-17T17:14:16.998Z,3.00
2022-08-17T17:16:49.409Z,3.58
2022-08-17T17:19:37.719Z,3.22
2022-08-17T17:22:16.492Z,2.83
2022-08-17T17:25:08.337Z,2.70
2022-08-17T17:27:50.475Z,3.05
2022-08-17T17:30:27.664Z,2.83
2022-08-17T17:33:17.514Z,2.90
2022-08-17T17:36:00.213Z,3.00
2022-08-17T17:38:34.294Z,3.20
2022-08-17T17:41:25.323Z,2.88
2022-08-17T17:44:01.917Z,2.90
2022-08-17T17:46:38.005Z,2.83
2022-08-17T17:49:06.149Z,2.50
2022-08-17T17:52:08.026Z,3.17
2022-08-17T17:54:47.966Z,2.90
2022-08-17T17:57:38.274Z,3.20
2022-08-17T18:00:13.008Z,2.90
2022-08-17T18:03:14.575Z,2.90
2022-08-17T18:06:06.366Z,3.42
2022-08-17T18:09:02.050Z,3.30
2022-08-17T18:11:46.148Z,3.08
2022-08-17T18:14:18.461Z,3.72
2022-08-17T18:16:46.599Z,3.58
2022-08-17T18:19:21.989Z,3.70
2022-08-17T18:21:54.831Z,3.45
2022-08-17T18:24:39.909Z,3.92
2022-08-17T18:27:32.277Z,4.00
2022-08-17T18:30:21.526Z,3.50
2022-08-17T18:32:48.758Z,3.85
2022-08-17T18:35:18.620Z,3.50
2022-08-17T18:37:49.000Z,3.28
2022-08-17T18:40:19.597Z,3.42
2022-08-17T18:43:06.070Z,3.47
2022-08-17T18:45:49.658Z,4.07
2022-08-17T18:48:27.763Z,3.75
2022-08-17T18:50:59.054Z,3.85
2022-08-17T18:53:36.508Z,3.80
2022-08-17T18:56:27.220Z,4.10
2022-08-17T18:59:04.915Z,3.90
2022-08-17T19:01:59.282Z,3.85
2022-08-17T19:04:37.509Z,3.90
2022-08-17T19:07:26.864Z,3.95
2022-08-17T19:10:25.519Z,3.95
2022-08-17T19:13:15.643Z,4.70
2022-08-17T19:16:22.886Z,3.92
2022-08-17T19:19:12.583Z,4.40
2022-08-17T19:21:54.405Z,4.63
2022-08-17T19:24:26.639Z,4.53
2022-08-17T19:27:11.418Z,4.20
2022-08-17T19:29:46.816Z,4.40
2022-08-17T19:32:27.686Z,4.47
2022-08-17T19:34:56.184Z,4.65
2022-08-17T19:37:42.047Z,4.88
2022-08-17T19:40:52.863Z,4.60
2022-08-17T19:43:31.202Z,3.72
2022-08-17T19:46:30.313Z,4.30
2022-08-17T19:49:11.637Z,5.00
2022-08-17T19:52:10.858Z,4.95
2022-08-17T19:54:47.347Z,4.57
2022-08-17T19:58:08.668Z,4.30
2022-08-17T20:00:47.008Z,4.28
2022-08-17T20:03:35.400Z,5.00
2022-08-17T20:06:12.892Z,4.45
2022-08-17T20:09:14.988Z,4.68
2022-08-17T20:11:57.629Z,4.78
2022-08-17T20:14:35.758Z,5.15
2022-08-17T20:17:06.043Z,5.20
2022-08-17T20:19:41.118Z,4.68
2022-08-17T20:22:49.682Z,5.38
2022-08-17T20:25:44.683Z,4.80
2022-08-17T20:28:24.861Z,4.90
2022-08-17T20:30:52.592Z,5.00
2022-08-17T20:33:25.854Z,4.35
2022-08-17T20:36:04.397Z,5.25
2022-08-17T20:38:48.724Z,4.68
2022-08-17T20:41:22.459Z,4.57
2022-08-17T20:43:59.011Z,4.78
2022-08-17T20:46:33.290Z,4.47
2022-08-17T20:49:09.193Z,4.75
2022-08-17T20:52:28.841Z,5.05
2022-08-17T20:54:59.884Z,5.10
2022-08-17T20:57:32.891Z,5.43
2022-08-17T21:00:17.552Z,4.78
2022-08-17T21:02:49.864Z,4.90
2022-08-17T21:05:53.423Z,4.97
2022-08-17T21:08:53.229Z,4.90
2022-08-17T21:12:02.239Z,4.63
2022-08-17T21:14:52.193Z,5.22
2022-08-17T21:17:29.910Z,6.05
2022-08-17T21:20:22.059Z,6.28
2022-08-17T21:22:53.384Z,5.78
2022-08-17T21:25:55.961Z,5.65
2022-08-17T21:29:00.442Z,5.28
2022-08-17T21:31:35.341Z,5.03
2022-08-17T21:34:21.149Z,5.30
2022-08-17T21:36:49.013Z,5.10
2022-08-17T21:39:23.289Z,5.28
2022-08-17T21:41:57.307Z,4.95
2022-08-17T21:44:32.343Z,5.40
2022-08-17T21:47:28.212Z,5.40
2022-08-17T21:49:56.492Z,5.07
2022-08-17T21:52:26.986Z,4.82
2022-08-17T21:54:58.445Z,5.22
2022-08-17T21:57:28.369Z,5.00
2022-08-17T22:00:01.721Z,5.13
2022-08-17T22:02:36.086Z,5.00
2022-08-17T22:05:13.318Z,5.38
2022-08-17T22:07:42.603Z,5.57
2022-08-17T22:10:27.816Z,5.85
2022-08-17T22:13:16.870Z,6.00
2022-08-17T22:15:51.304Z,5.28
2022-08-17T22:18:26.881Z,5.20
2022-08-17T22:20:57.023Z,5.30
2022-08-17T22:23:48.003Z,5.40
2022-08-17T22:26:17.020Z,6.05
2022-08-17T22:28:52.324Z,5.25
2022-08-17T22:31:22.894Z,5.80
2022-08-17T22:34:02.009Z,5.50
2022-08-17T22:36:37.212Z,6.20
2022-08-17T22:39:08.323Z,5.90
2022-08-17T22:41:51.938Z,5.70
2022-08-17T22:44:37.840Z,5.53
2022-08-17T22:47:24.673Z,5.55
2022-08-17T22:49:58.835Z,5.82
2022-08-17T22:52:57.848Z,5.25
2022-08-17T22:55:44.406Z,5.05
2022-08-17T22:58:33.296Z,5.47
2022-08-17T23:01:26.123Z,5.15
2022-08-17T23:04:05.990Z,5.78
2022-08-17T23:06:35.168Z,5.18
2022-08-17T23:09:04.281Z,5.25
2022-08-17T23:11:49.380Z,5.70
2022-08-17T23:14:21.141Z,5.57
2022-08-17T23:16:50.372Z,5.47
2022-08-17T23:19:21.450Z,5.07
2022-08-17T23:21:52.571Z,4.90
2022-08-17T23:24:30.790Z,5.32
2022-08-17T23:26:59.022Z,5.60
2022-08-17T23:29:29.417Z,5.25
2022-08-17T23:31:59.834Z,4.93
2022-08-17T23:34:28.080Z,4.97
2022-08-17T23:36:55.885Z,5.50
2022-08-17T23:39:27.470Z,4.40
2022-08-17T23:42:00.214Z,4.57
2022-08-17T23:44:28.400Z,4.80
2022-08-17T23:46:55.273Z,5.13
2022-08-17T23:49:23.481Z,4.97
2022-08-17T23:51:50.391Z,5.10
2022-08-17T23:54:23.238Z,5.05
2022-08-17T23:56:50.628Z,5.57
2022-08-17T23:59:20.147Z,4.90
